sensor_id;sensor_type;location;lat;lon;timestamp;temperature;humidity
52397;DHT22;38322;53.108;6.308;2022-11-20T06:01:59;-0.30;99.90
52397;DHT22;38322;53.108;6.308;2022-11-20T06:04:25;-0.30;99.90
52397;DHT22;38322;53.108;6.308;2022-11-20T06:06:51;-0.20;99.90
52397;DHT22;38322;53.108;6.308;2022-11-20T06:09:17;-0.30;99.90
52397;DHT22;38322;53.108;6.308;2022-11-20T06:11:43;-0.30;99.90
52397;DHT22;38322;53.108;6.308;2022-11-20T06:14:08;-0.20;99.90
52397;DHT22;38322;53.108;6.308;2022-11-20T06:16:34;-0.30;99.90
52397;DHT22;38322;53.108;6.308;2022-11-20T06:19:00;-0.20;99.90
52397;DHT22;38322;53.108;6.308;2022-11-20T06:21:26;-0.20;99.90
52397;DHT22;38322;53.108;6.308;2022-11-20T06:23:52;-0.20;99.90
52397;DHT22;38322;53.108;6.308;2022-11-20T06:26:20;-0.20;99.90
52397;DHT22;38322;53.108;6.308;2022-11-20T06:28:47;-0.20;99.90
52397;DHT22;38322;53.108;6.308;2022-11-20T06:31:15;-0.20;99.90
52397;DHT22;38322;53.108;6.308;2022-11-20T06:33:42;-0.20;99.90
52397;DHT22;38322;53.108;6.308;2022-11-20T06:36:11;-0.20;99.90
52397;DHT22;38322;53.108;6.308;2022-11-20T06:38:38;-0.20;99.90
52397;DHT22;38322;53.108;6.308;2022-11-20T06:41:05;-0.20;99.90
52397;DHT22;38322;53.108;6.308;2022-11-20T06:43:31;-0.10;99.90
52397;DHT22;38322;53.108;6.308;2022-11-20T06:45:58;-0.10;99.90
52397;DHT22;38322;53.108;6.308;2022-11-20T06:48:26;-0.10;99.90
52397;DHT22;38322;53.108;6.308;2022-11-20T06:50:52;-0.10;99.90
52397;DHT22;38322;53.108;6.308;2022-11-20T06:53:18;-0.10;99.90
52397;DHT22;38322;53.108;6.308;2022-11-20T06:55:45;0.00;99.90
52397;DHT22;38322;53.108;6.308;2022-11-20T06:58:12;0.00;99.90
52397;DHT22;38322;53.108;6.308;2022-11-20T07:00:38;0.00;99.90
52397;DHT22;38322;53.108;6.308;2022-11-20T07:03:05;0.00;99.90
52397;DHT22;38322;53.108;6.308;2022-11-20T07:05:31;0.00;99.90
52397;DHT22;38322;53.108;6.308;2022-11-20T07:07:57;0.00;99.90
52397;DHT22;38322;53.108;6.308;2022-11-20T07:10:23;0.00;99.90
52397;DHT22;38322;53.108;6.308;2022-11-20T07:12:50;0.00;99.90
52397;DHT22;38322;53.108;6.308;2022-11-20T07:15:17;0.00;99.90
52397;DHT22;38322;53.108;6.308;2022-11-20T07:17:43;0.00;99.90
52397;DHT22;38322;53.108;6.308;2022-11-20T07:20:09;0.00;99.90
52397;DHT22;38322;53.108;6.308;2022-11-20T07:22:35;0.00;99.90
52397;DHT22;38322;53.108;6.308;2022-11-20T07:25:01;0.00;99.90
52397;DHT22;38322;53.108;6.308;2022-11-20T07:27:27;0.00;99.90
52397;DHT22;38322;53.108;6.308;2022-11-20T07:29:53;-0.10;99.90
52397;DHT22;38322;53.108;6.308;2022-11-20T07:32:19;-0.10;99.90
52397;DHT22;38322;53.108;6.308;2022-11-20T07:34:45;-0.10;99.90
52397;DHT22;38322;53.108;6.308;2022-11-20T07:37:12;-0.10;99.90
52397;DHT22;38322;53.108;6.308;2022-11-20T07:39:37;-0.10;99.90
52397;DHT22;38322;53.108;6.308;2022-11-20T07:42:03;-0.10;99.90
52397;DHT22;38322;53.108;6.308;2022-11-20T07:44:29;0.00;99.90
52397;DHT22;38322;53.108;6.308;2022-11-20T07:46:55;0.00;99.90
52397;DHT22;38322;53.108;6.308;2022-11-20T07:49:20;0.00;99.90
52397;DHT22;38322;53.108;6.308;2022-11-20T07:51:46;0.10;99.90
52397;DHT22;38322;53.108;6.308;2022-11-20T07:54:12;0.10;99.90
52397;DHT22;38322;53.108;6.308;2022-11-20T07:56:38;0.10;99.90
52397;DHT22;38322;53.108;6.308;2022-11-20T07:59:04;0.10;99.90
52397;DHT22;38322;53.108;6.308;2022-11-20T08:01:30;0.20;99.90
52397;DHT22;38322;53.108;6.308;2022-11-20T08:03:56;0.20;99.90
52397;DHT22;38322;53.108;6.308;2022-11-20T08:06:21;0.20;99.90
52397;DHT22;38322;53.108;6.308;2022-11-20T08:08:47;0.20;99.90
52397;DHT22;38322;53.108;6.308;2022-11-20T08:11:13;0.20;99.90
52397;DHT22;38322;53.108;6.308;2022-11-20T08:13:57;0.20;99.90
52397;DHT22;38322;53.108;6.308;2022-11-20T08:16:41;0.30;99.90
52397;DHT22;38322;53.108;6.308;2022-11-20T08:19:08;0.30;99.90
52397;DHT22;38322;53.108;6.308;2022-11-20T08:21:34;0.30;99.90
52397;DHT22;38322;53.108;6.308;2022-11-20T08:24:00;0.30;99.90
52397;DHT22;38322;53.108;6.308;2022-11-20T08:26:26;0.30;99.90
52397;DHT22;38322;53.108;6.308;2022-11-20T08:28:54;0.30;99.90
52397;DHT22;38322;53.108;6.308;2022-11-20T08:31:21;0.40;99.90
52397;DHT22;38322;53.108;6.308;2022-11-20T08:33:47;0.40;99.90
52397;DHT22;38322;53.108;6.308;2022-11-20T08:36:13;0.40;99.90
52397;DHT22;38322;53.108;6.308;2022-11-20T08:38:38;0.40;99.90
52397;DHT22;38322;53.108;6.308;2022-11-20T08:41:05;0.40;99.90
52397;DHT22;38322;53.108;6.308;2022-11-20T08:43:50;0.40;99.90
52397;DHT22;38322;53.108;6.308;2022-11-20T08:46:16;0.40;99.90
52397;DHT22;38322;53.108;6.308;2022-11-20T08:48:43;0.50;99.90
52397;DHT22;38322;53.108;6.308;2022-11-20T08:51:09;0.40;99.90
52397;DHT22;38322;53.108;6.308;2022-11-20T08:53:35;0.50;99.90
52397;DHT22;38322;53.108;6.308;2022-11-20T08:56:01;0.50;99.90
52397;DHT22;38322;53.108;6.308;2022-11-20T08:58:27;0.50;99.90
52397;DHT22;38322;53.108;6.308;2022-11-20T09:00:53;0.50;99.90
52397;DHT22;38322;53.108;6.308;2022-11-20T09:03:19;0.60;99.90
52397;DHT22;38322;53.108;6.308;2022-11-20T09:05:45;0.50;99.90
52397;DHT22;38322;53.108;6.308;2022-11-20T09:08:11;0.60;99.90
52397;DHT22;38322;53.108;6.308;2022-11-20T09:10:37;0.50;99.90
52397;DHT22;38322;53.108;6.308;2022-11-20T09:13:05;0.60;99.90
52397;DHT22;38322;53.108;6.308;2022-11-20T09:15:31;0.70;99.90
52397;DHT22;38322;53.108;6.308;2022-11-20T09:17:58;0.70;99.90
52397;DHT22;38322;53.108;6.308;2022-11-20T09:20:26;0.70;99.90
52397;DHT22;38322;53.108;6.308;2022-11-20T09:22:52;0.70;99.90
52397;DHT22;38322;53.108;6.308;2022-11-20T09:25:18;0.70;99.90
52397;DHT22;38322;53.108;6.308;2022-11-20T09:27:44;0.80;99.90
52397;DHT22;38322;53.108;6.308;2022-11-20T09:30:13;0.80;99.90
52397;DHT22;38322;53.108;6.308;2022-11-20T09:32:39;0.80;99.90
52397;DHT22;38322;53.108;6.308;2022-11-20T09:35:06;0.80;99.90
52397;DHT22;38322;53.108;6.308;2022-11-20T09:37:32;0.90;99.90
52397;DHT22;38322;53.108;6.308;2022-11-20T09:39:58;0.90;99.90
52397;DHT22;38322;53.108;6.308;2022-11-20T09:42:45;0.90;99.90
52397;DHT22;38322;53.108;6.308;2022-11-20T09:45:19;1.00;99.90
52397;DHT22;38322;53.108;6.308;2022-11-20T09:47:53;1.00;99.90
52397;DHT22;38322;53.108;6.308;2022-11-20T09:50:35;1.10;99.90
52397;DHT22;38322;53.108;6.308;2022-11-20T09:55:32;1.20;99.90
52397;DHT22;38322;53.108;6.308;2022-11-20T09:57:59;1.20;99.90
52397;DHT22;38322;53.108;6.308;2022-11-20T10:00:27;1.20;99.90
52397;DHT22;38322;53.108;6.308;2022-11-20T10:03:01;1.20;99.90
52397;DHT22;38322;53.108;6.308;2022-11-20T10:05:31;1.20;99.90
52397;DHT22;38322;53.108;6.308;2022-11-20T10:10:34;1.20;99.90
52397;DHT22;38322;53.108;6.308;2022-11-20T10:16:20;1.20;99.90
52397;DHT22;38322;53.108;6.308;2022-11-20T10:19:23;1.20;99.90
52397;DHT22;38322;53.108;6.308;2022-11-20T10:22:04;1.30;99.90
52397;DHT22;38322;53.108;6.308;2022-11-20T10:24:40;1.30;99.90
52397;DHT22;38322;53.108;6.308;2022-11-20T10:27:34;1.20;99.90
52397;DHT22;38322;53.108;6.308;2022-11-20T10:30:08;1.20;99.90
52397;DHT22;38322;53.108;6.308;2022-11-20T10:32:38;1.20;99.90
52397;DHT22;38322;53.108;6.308;2022-11-20T10:37:44;1.30;99.90
52397;DHT22;38322;53.108;6.308;2022-11-20T10:40:21;1.40;99.90
52397;DHT22;38322;53.108;6.308;2022-11-20T10:42:56;1.40;99.90
52397;DHT22;38322;53.108;6.308;2022-11-20T10:47:56;1.50;99.90
52397;DHT22;38322;53.108;6.308;2022-11-20T10:50:23;1.60;99.90
52397;DHT22;38322;53.108;6.308;2022-11-20T10:52:57;1.60;99.90
52397;DHT22;38322;53.108;6.308;2022-11-20T10:55:40;1.70;99.90
52397;DHT22;38322;53.108;6.308;2022-11-20T10:58:20;1.80;99.90
52397;DHT22;38322;53.108;6.308;2022-11-20T11:00:48;1.90;99.90
52397;DHT22;38322;53.108;6.308;2022-11-20T11:03:26;2.00;99.90
52397;DHT22;38322;53.108;6.308;2022-11-20T11:08:40;2.10;99.90
52397;DHT22;38322;53.108;6.308;2022-11-20T11:11:24;2.20;99.90
52397;DHT22;38322;53.108;6.308;2022-11-20T11:13:50;2.30;99.90
52397;DHT22;38322;53.108;6.308;2022-11-20T11:16:21;2.30;99.90
52397;DHT22;38322;53.108;6.308;2022-11-20T11:18:48;2.30;99.90
52397;DHT22;38322;53.108;6.308;2022-11-20T11:21:24;2.40;99.90
52397;DHT22;38322;53.108;6.308;2022-11-20T11:24:00;2.40;99.90
52397;DHT22;38322;53.108;6.308;2022-11-20T11:26:27;2.50;99.90
52397;DHT22;38322;53.108;6.308;2022-11-20T11:28:55;2.50;99.90
52397;DHT22;38322;53.108;6.308;2022-11-20T11:31:29;2.60;99.90
52397;DHT22;38322;53.108;6.308;2022-11-20T11:34:07;2.60;99.90
52397;DHT22;38322;53.108;6.308;2022-11-20T11:36:34;2.70;99.90
52397;DHT22;38322;53.108;6.308;2022-11-20T11:39:02;2.70;99.90
52397;DHT22;38322;53.108;6.308;2022-11-20T11:41:32;2.80;99.90
52397;DHT22;38322;53.108;6.308;2022-11-20T11:44:17;2.80;99.90
52397;DHT22;38322;53.108;6.308;2022-11-20T11:47:03;2.90;99.90
52397;DHT22;38322;53.108;6.308;2022-11-20T11:49:29;3.00;99.90
52397;DHT22;38322;53.108;6.308;2022-11-20T11:51:58;3.10;99.90
52397;DHT22;38322;53.108;6.308;2022-11-20T11:57:05;3.30;99.90
52397;DHT22;38322;53.108;6.308;2022-11-20T12:00:03;3.30;99.90
52397;DHT22;38322;53.108;6.308;2022-11-20T12:05:23;3.50;99.90
52397;DHT22;38322;53.108;6.308;2022-11-20T12:10:45;3.50;99.90
52397;DHT22;38322;53.108;6.308;2022-11-20T12:13:20;3.40;99.90
52397;DHT22;38322;53.108;6.308;2022-11-20T12:15:47;3.40;99.90
52397;DHT22;38322;53.108;6.308;2022-11-20T12:18:18;3.40;99.90
52397;DHT22;38322;53.108;6.308;2022-11-20T12:20:55;3.30;99.90
52397;DHT22;38322;53.108;6.308;2022-11-20T12:26:02;3.20;99.90
52397;DHT22;38322;53.108;6.308;2022-11-20T12:28:39;3.10;99.90
52397;DHT22;38322;53.108;6.308;2022-11-20T12:31:23;3.00;99.90
52397;DHT22;38322;53.108;6.308;2022-11-20T12:36:39;2.90;99.90
52397;DHT22;38322;53.108;6.308;2022-11-20T12:42:03;3.00;99.90
52397;DHT22;38322;53.108;6.308;2022-11-20T12:50:46;3.20;99.90
52397;DHT22;38322;53.108;6.308;2022-11-20T12:53:33;3.20;99.90
52397;DHT22;38322;53.108;6.308;2022-11-20T12:58:54;3.30;99.90
52397;DHT22;38322;53.108;6.308;2022-11-20T13:01:32;3.30;99.90
52397;DHT22;38322;53.108;6.308;2022-11-20T13:07:06;3.30;99.90
52397;DHT22;38322;53.108;6.308;2022-11-20T13:09:36;3.20;99.90
52397;DHT22;38322;53.108;6.308;2022-11-20T13:12:15;3.20;99.90
52397;DHT22;38322;53.108;6.308;2022-11-20T13:14:53;3.20;99.90
52397;DHT22;38322;53.108;6.308;2022-11-20T13:17:44;3.20;99.90
52397;DHT22;38322;53.108;6.308;2022-11-20T13:20:16;3.20;99.90
52397;DHT22;38322;53.108;6.308;2022-11-20T13:22:45;3.30;99.90
52397;DHT22;38322;53.108;6.308;2022-11-20T13:25:32;3.30;99.90
52397;DHT22;38322;53.108;6.308;2022-11-20T13:30:37;3.30;99.90
52397;DHT22;38322;53.108;6.308;2022-11-20T13:33:30;3.30;99.90
52397;DHT22;38322;53.108;6.308;2022-11-20T13:36:00;3.30;99.90
52397;DHT22;38322;53.108;6.308;2022-11-20T13:38:28;3.30;99.90
52397;DHT22;38322;53.108;6.308;2022-11-20T13:40:59;3.30;99.90
52397;DHT22;38322;53.108;6.308;2022-11-20T13:43:47;3.30;99.90
52397;DHT22;38322;53.108;6.308;2022-11-20T13:46:13;3.20;99.90
52397;DHT22;38322;53.108;6.308;2022-11-20T13:48:43;3.20;99.90
52397;DHT22;38322;53.108;6.308;2022-11-20T13:51:38;3.10;99.90
52397;DHT22;38322;53.108;6.308;2022-11-20T13:59:56;3.00;99.90
52397;DHT22;38322;53.108;6.308;2022-11-20T14:02:25;3.00;99.90
52397;DHT22;38322;53.108;6.308;2022-11-20T14:04:53;2.90;99.90
52397;DHT22;38322;53.108;6.308;2022-11-20T14:07:23;3.00;99.90
52397;DHT22;38322;53.108;6.308;2022-11-20T14:09:53;2.90;99.90
52397;DHT22;38322;53.108;6.308;2022-11-20T14:12:23;2.90;99.90
52397;DHT22;38322;53.108;6.308;2022-11-20T14:14:52;2.90;99.90
52397;DHT22;38322;53.108;6.308;2022-11-20T14:17:21;2.80;99.90
52397;DHT22;38322;53.108;6.308;2022-11-20T14:19:49;2.80;99.90
52397;DHT22;38322;53.108;6.308;2022-11-20T14:22:22;2.80;99.90
52397;DHT22;38322;53.108;6.308;2022-11-20T14:25:00;2.70;99.90
52397;DHT22;38322;53.108;6.308;2022-11-20T14:27:27;2.70;99.90
52397;DHT22;38322;53.108;6.308;2022-11-20T14:29:54;2.70;99.90
52397;DHT22;38322;53.108;6.308;2022-11-20T14:32:23;2.70;99.90
52397;DHT22;38322;53.108;6.308;2022-11-20T14:34:51;2.60;99.90
52397;DHT22;38322;53.108;6.308;2022-11-20T14:37:23;2.60;99.90
52397;DHT22;38322;53.108;6.308;2022-11-20T14:39:52;2.60;99.90
52397;DHT22;38322;53.108;6.308;2022-11-20T14:42:21;2.50;99.90
52397;DHT22;38322;53.108;6.308;2022-11-20T14:44:48;2.50;99.90
52397;DHT22;38322;53.108;6.308;2022-11-20T14:47:21;2.50;99.90
52397;DHT22;38322;53.108;6.308;2022-11-20T14:49:48;2.40;99.90
52397;DHT22;38322;53.108;6.308;2022-11-20T14:52:19;2.40;99.90
52397;DHT22;38322;53.108;6.308;2022-11-20T14:54:48;2.40;99.90
52397;DHT22;38322;53.108;6.308;2022-11-20T15:02:42;2.20;99.90
52397;DHT22;38322;53.108;6.308;2022-11-20T15:05:08;2.20;99.90
52397;DHT22;38322;53.108;6.308;2022-11-20T15:07:37;2.20;99.90
52397;DHT22;38322;53.108;6.308;2022-11-20T15:10:07;2.10;99.90
52397;DHT22;38322;53.108;6.308;2022-11-20T15:12:37;2.10;99.90
52397;DHT22;38322;53.108;6.308;2022-11-20T15:15:04;2.00;99.90
52397;DHT22;38322;53.108;6.308;2022-11-20T15:17:32;2.00;99.90
52397;DHT22;38322;53.108;6.308;2022-11-20T15:20:02;2.00;99.90
52397;DHT22;38322;53.108;6.308;2022-11-20T15:22:31;2.00;99.90
52397;DHT22;38322;53.108;6.308;2022-11-20T15:24:57;2.00;99.90
52397;DHT22;38322;53.108;6.308;2022-11-20T15:27:23;2.00;99.90
52397;DHT22;38322;53.108;6.308;2022-11-20T15:29:49;1.90;99.90
52397;DHT22;38322;53.108;6.308;2022-11-20T15:32:15;1.90;99.90
52397;DHT22;38322;53.108;6.308;2022-11-20T15:34:41;1.90;99.90
52397;DHT22;38322;53.108;6.308;2022-11-20T15:37:07;1.90;99.90
52397;DHT22;38322;53.108;6.308;2022-11-20T15:39:33;1.90;99.90
52397;DHT22;38322;53.108;6.308;2022-11-20T15:41:58;1.90;99.90
52397;DHT22;38322;53.108;6.308;2022-11-20T15:44:24;1.90;99.90
52397;DHT22;38322;53.108;6.308;2022-11-20T15:46:50;1.80;99.90
52397;DHT22;38322;53.108;6.308;2022-11-20T15:49:17;1.80;99.90
52397;DHT22;38322;53.108;6.308;2022-11-20T15:51:47;1.80;99.90
52397;DHT22;38322;53.108;6.308;2022-11-20T15:54:15;1.80;99.90
52397;DHT22;38322;53.108;6.308;2022-11-20T15:56:43;1.80;99.90
52397;DHT22;38322;53.108;6.308;2022-11-20T15:59:09;1.80;99.90
52397;DHT22;38322;53.108;6.308;2022-11-20T16:01:35;1.80;99.90
52397;DHT22;38322;53.108;6.308;2022-11-20T16:04:01;1.80;99.90
52397;DHT22;38322;53.108;6.308;2022-11-20T16:06:27;1.80;99.90
52397;DHT22;38322;53.108;6.308;2022-11-20T16:08:53;1.70;99.90
52397;DHT22;38322;53.108;6.308;2022-11-20T16:11:19;1.70;99.90
52397;DHT22;38322;53.108;6.308;2022-11-20T16:13:45;1.70;99.90
52397;DHT22;38322;53.108;6.308;2022-11-20T16:16:37;1.70;99.90
52397;DHT22;38322;53.108;6.308;2022-11-20T16:19:04;1.70;99.90
52397;DHT22;38322;53.108;6.308;2022-11-20T16:21:31;1.70;99.90
52397;DHT22;38322;53.108;6.308;2022-11-20T16:23:59;1.70;99.90
52397;DHT22;38322;53.108;6.308;2022-11-20T16:26:26;1.70;99.90
52397;DHT22;38322;53.108;6.308;2022-11-20T16:28:53;1.70;99.90
52397;DHT22;38322;53.108;6.308;2022-11-20T16:31:20;1.70;99.90
52397;DHT22;38322;53.108;6.308;2022-11-20T16:33:54;1.70;99.90
52397;DHT22;38322;53.108;6.308;2022-11-20T16:36:22;1.70;99.90
52397;DHT22;38322;53.108;6.308;2022-11-20T16:38:57;1.70;99.90
52397;DHT22;38322;53.108;6.308;2022-11-20T16:41:25;1.60;99.90
52397;DHT22;38322;53.108;6.308;2022-11-20T16:43:53;1.60;99.90
52397;DHT22;38322;53.108;6.308;2022-11-20T16:46:21;1.70;99.90
52397;DHT22;38322;53.108;6.308;2022-11-20T16:49:00;1.60;99.90
52397;DHT22;38322;53.108;6.308;2022-11-20T16:51:27;1.60;99.90
52397;DHT22;38322;53.108;6.308;2022-11-20T16:53:55;1.60;99.90
52397;DHT22;38322;53.108;6.308;2022-11-20T16:56:25;1.60;99.90
52397;DHT22;38322;53.108;6.308;2022-11-20T16:58:56;1.60;99.90
52397;DHT22;38322;53.108;6.308;2022-11-20T17:01:24;1.60;99.90
52397;DHT22;38322;53.108;6.308;2022-11-20T17:04:04;1.60;99.90
52397;DHT22;38322;53.108;6.308;2022-11-20T17:06:33;1.60;99.90
52397;DHT22;38322;53.108;6.308;2022-11-20T17:08:59;1.60;99.90
52397;DHT22;38322;53.108;6.308;2022-11-20T17:11:25;1.60;99.90
52397;DHT22;38322;53.108;6.308;2022-11-20T17:13:51;1.60;99.90
52397;DHT22;38322;53.108;6.308;2022-11-20T17:16:20;1.60;99.90
52397;DHT22;38322;53.108;6.308;2022-11-20T17:18:46;1.60;99.90
52397;DHT22;38322;53.108;6.308;2022-11-20T17:21:12;1.60;99.90
52397;DHT22;38322;53.108;6.308;2022-11-20T17:23:40;1.50;99.90
52397;DHT22;38322;53.108;6.308;2022-11-20T17:26:09;1.50;99.90
52397;DHT22;38322;53.108;6.308;2022-11-20T17:28:37;1.50;99.90
52397;DHT22;38322;53.108;6.308;2022-11-20T17:31:08;1.50;99.90
52397;DHT22;38322;53.108;6.308;2022-11-20T17:33:36;1.50;99.90
52397;DHT22;38322;53.108;6.308;2022-11-20T17:36:04;1.50;99.90
52397;DHT22;38322;53.108;6.308;2022-11-20T17:38:30;1.50;99.90
52397;DHT22;38322;53.108;6.308;2022-11-20T17:41:03;1.40;99.90
52397;DHT22;38322;53.108;6.308;2022-11-20T17:43:30;1.40;99.90
52397;DHT22;38322;53.108;6.308;2022-11-20T17:45:56;1.40;99.90
52397;DHT22;38322;53.108;6.308;2022-11-20T17:48:22;1.40;99.90
52397;DHT22;38322;53.108;6.308;2022-11-20T17:50:49;1.30;99.90
52397;DHT22;38322;53.108;6.308;2022-11-20T17:56:56;1.30;99.90
52397;DHT22;38322;53.108;6.308;2022-11-20T17:59:40;1.30;99.90
52397;DHT22;38322;53.108;6.308;2022-11-20T18:02:06;1.30;99.90
52397;DHT22;38322;53.108;6.308;2022-11-20T18:04:32;1.30;99.90
52397;DHT22;38322;53.108;6.308;2022-11-20T18:06:58;1.30;99.90
52397;DHT22;38322;53.108;6.308;2022-11-20T18:09:23;1.30;99.90
52397;DHT22;38322;53.108;6.308;2022-11-20T18:11:49;1.30;99.90
52397;DHT22;38322;53.108;6.308;2022-11-20T18:14:16;1.30;99.90
52397;DHT22;38322;53.108;6.308;2022-11-20T18:16:53;1.30;99.90
52397;DHT22;38322;53.108;6.308;2022-11-20T18:19:23;1.30;99.90
52397;DHT22;38322;53.108;6.308;2022-11-20T18:21:49;1.30;99.90
52397;DHT22;38322;53.108;6.308;2022-11-20T18:24:15;1.30;99.90
52397;DHT22;38322;53.108;6.308;2022-11-20T18:26:41;1.30;99.90
52397;DHT22;38322;53.108;6.308;2022-11-20T18:29:07;1.20;99.90
52397;DHT22;38322;53.108;6.308;2022-11-20T18:31:33;1.30;99.90
52397;DHT22;38322;53.108;6.308;2022-11-20T18:33:59;1.20;99.90
52397;DHT22;38322;53.108;6.308;2022-11-20T18:36:27;1.30;99.90
52397;DHT22;38322;53.108;6.308;2022-11-20T18:38:55;1.30;99.90
52397;DHT22;38322;53.108;6.308;2022-11-20T18:41:24;1.30;99.90
52397;DHT22;38322;53.108;6.308;2022-11-20T18:44:14;1.30;99.90
52397;DHT22;38322;53.108;6.308;2022-11-20T18:46:59;1.30;99.90
52397;DHT22;38322;53.108;6.308;2022-11-20T18:49:26;1.30;99.90
52397;DHT22;38322;53.108;6.308;2022-11-20T18:51:52;1.30;99.90
52397;DHT22;38322;53.108;6.308;2022-11-20T18:54:18;1.20;99.90
52397;DHT22;38322;53.108;6.308;2022-11-20T18:56:43;1.20;99.90
52397;DHT22;38322;53.108;6.308;2022-11-20T18:59:10;1.20;99.90
52397;DHT22;38322;53.108;6.308;2022-11-20T19:01:37;1.20;99.90
52397;DHT22;38322;53.108;6.308;2022-11-20T19:04:07;1.20;99.90
52397;DHT22;38322;53.108;6.308;2022-11-20T19:06:34;1.20;99.90
52397;DHT22;38322;53.108;6.308;2022-11-20T19:09:01;1.20;99.90
52397;DHT22;38322;53.108;6.308;2022-11-20T19:11:29;1.20;99.90
52397;DHT22;38322;53.108;6.308;2022-11-20T19:13:55;1.20;99.90
52397;DHT22;38322;53.108;6.308;2022-11-20T19:16:21;1.20;99.90
52397;DHT22;38322;53.108;6.308;2022-11-20T19:18:47;1.20;99.90
52397;DHT22;38322;53.108;6.308;2022-11-20T19:21:16;1.20;99.90
52397;DHT22;38322;53.108;6.308;2022-11-20T19:23:42;1.20;99.90
52397;DHT22;38322;53.108;6.308;2022-11-20T19:26:11;1.20;99.90
52397;DHT22;38322;53.108;6.308;2022-11-20T19:28:37;1.20;99.90
52397;DHT22;38322;53.108;6.308;2022-11-20T19:31:07;1.20;99.90
52397;DHT22;38322;53.108;6.308;2022-11-20T19:33:33;1.20;99.90
52397;DHT22;38322;53.108;6.308;2022-11-20T19:36:10;1.30;99.90
52397;DHT22;38322;53.108;6.308;2022-11-20T19:38:36;1.20;99.90
52397;DHT22;38322;53.108;6.308;2022-11-20T19:41:03;1.20;99.90
52397;DHT22;38322;53.108;6.308;2022-11-20T19:43:29;1.30;99.90
52397;DHT22;38322;53.108;6.308;2022-11-20T19:45:55;1.20;99.90
52397;DHT22;38322;53.108;6.308;2022-11-20T19:48:20;1.20;99.90
52397;DHT22;38322;53.108;6.308;2022-11-20T19:50:46;1.20;99.90
52397;DHT22;38322;53.108;6.308;2022-11-20T19:53:12;1.20;99.90
52397;DHT22;38322;53.108;6.308;2022-11-20T19:55:38;1.20;99.90
52397;DHT22;38322;53.108;6.308;2022-11-20T19:58:04;1.20;99.90
52397;DHT22;38322;53.108;6.308;2022-11-20T20:00:30;1.20;99.90
52397;DHT22;38322;53.108;6.308;2022-11-20T20:02:56;1.20;99.90
52397;DHT22;38322;53.108;6.308;2022-11-20T20:05:22;1.10;99.90
52397;DHT22;38322;53.108;6.308;2022-11-20T20:07:47;1.20;99.90
52397;DHT22;38322;53.108;6.308;2022-11-20T20:10:13;1.20;99.90
52397;DHT22;38322;53.108;6.308;2022-11-20T20:12:39;1.20;99.90
52397;DHT22;38322;53.108;6.308;2022-11-20T20:15:06;1.10;99.90
52397;DHT22;38322;53.108;6.308;2022-11-20T20:17:32;1.10;99.90
52397;DHT22;38322;53.108;6.308;2022-11-20T20:19:57;1.10;99.90
52397;DHT22;38322;53.108;6.308;2022-11-20T20:22:23;1.10;99.90
52397;DHT22;38322;53.108;6.308;2022-11-20T20:24:49;1.10;99.90
52397;DHT22;38322;53.108;6.308;2022-11-20T20:27:17;1.10;99.90
52397;DHT22;38322;53.108;6.308;2022-11-20T20:29:42;1.10;99.90
52397;DHT22;38322;53.108;6.308;2022-11-20T20:32:08;1.00;99.90
52397;DHT22;38322;53.108;6.308;2022-11-20T20:34:34;1.00;99.90
52397;DHT22;38322;53.108;6.308;2022-11-20T20:37:00;1.00;99.90
52397;DHT22;38322;53.108;6.308;2022-11-20T20:39:28;1.00;99.90
52397;DHT22;38322;53.108;6.308;2022-11-20T20:41:54;1.00;99.90
52397;DHT22;38322;53.108;6.308;2022-11-20T20:44:20;1.00;99.90
52397;DHT22;38322;53.108;6.308;2022-11-20T20:47:04;1.00;99.90
52397;DHT22;38322;53.108;6.308;2022-11-20T20:49:32;1.00;99.90
52397;DHT22;38322;53.108;6.308;2022-11-20T20:51:58;1.00;99.90
52397;DHT22;38322;53.108;6.308;2022-11-20T20:54:24;1.00;99.90
52397;DHT22;38322;53.108;6.308;2022-11-20T20:56:50;1.00;99.90
52397;DHT22;38322;53.108;6.308;2022-11-20T20:59:16;1.00;99.90
